Time;durP1;ratioP1;P1;durP2;ratioP2;P2;SDS_P1;SDS_P2;PMS_P1;PMS_P2;Temp;Humidity;BMP_temperature;BMP_pressure;BME280_temperature;BME280_humidity;BME280_pressure;Samples;Min_cycle;Max_cycle;Signal;HPM_P1;HPM_P2
2023/09/20 00:01:03;;;;;;;2.65;0.73;;;16.80;99.90;;;;;;4862752;29;20034;-65
2023/09/20 00:03:28;;;;;;;1.45;0.75;;;16.90;99.90;;;;;;4868809;29;20032;-65
2023/09/20 00:05:54;;;;;;;1.58;0.60;;;16.80;99.90;;;;;;4858091;29;20041;-65
2023/09/20 00:08:20;;;;;;;1.27;0.70;;;16.80;99.90;;;;;;4874315;29;20033;-66
2023/09/20 00:10:46;;;;;;;3.10;0.95;;;16.80;99.90;;;;;;4862454;29;20044;-66
2023/09/20 00:13:13;;;;;;;4.25;0.80;;;16.80;99.90;;;;;;4862084;29;20038;-65
2023/09/20 00:15:42;;;;;;;4.40;0.88;;;16.80;99.90;;;;;;4859826;29;20487;-65
2023/09/20 00:18:09;;;;;;;1.65;0.65;;;16.70;99.90;;;;;;4872139;29;20363;-65
2023/09/20 00:20:36;;;;;;;4.57;0.80;;;16.70;99.90;;;;;;4882035;29;20987;-65
2023/09/20 00:23:04;;;;;;;2.00;0.80;;;16.70;99.90;;;;;;4871419;29;20041;-65
2023/09/20 00:25:30;;;;;;;1.92;0.88;;;16.60;99.90;;;;;;4891664;29;20124;-65
2023/09/20 00:27:55;;;;;;;1.50;0.80;;;16.60;99.90;;;;;;4861847;29;20056;-65
2023/09/20 00:30:21;;;;;;;1.63;0.85;;;16.50;99.90;;;;;;4876213;29;20482;-66
2023/09/20 00:32:47;;;;;;;2.08;0.80;;;16.50;99.90;;;;;;4879628;29;20036;-65
2023/09/20 00:35:19;;;;;;;3.85;1.17;;;16.50;99.90;;;;;;4858415;29;20030;-65
2023/09/20 00:37:46;;;;;;;2.28;1.00;;;16.50;99.90;;;;;;4861729;29;20040;-65
2023/09/20 00:40:18;;;;;;;4.03;0.63;;;16.50;99.90;;;;;;4891540;29;20470;-65
2023/09/20 00:42:46;;;;;;;0.90;0.50;;;16.40;99.90;;;;;;4860727;29;20038;-65
2023/09/20 00:45:13;;;;;;;1.38;0.70;;;16.40;99.90;;;;;;4875599;29;20113;-66
2023/09/20 00:47:47;;;;;;;1.17;0.60;;;16.40;99.90;;;;;;4854799;29;20029;-65
2023/09/20 00:50:14;;;;;;;0.68;0.47;;;16.40;99.90;;;;;;4875073;29;20033;-65
2023/09/20 00:52:46;;;;;;;1.05;0.63;;;16.40;99.90;;;;;;4868887;29;20033;-65
2023/09/20 00:55:20;;;;;;;1.33;0.80;;;16.40;99.90;;;;;;4890644;29;20037;-65
2023/09/20 00:57:51;;;;;;;1.77;0.60;;;16.40;99.90;;;;;;4868753;29;20030;-65
2023/09/20 01:00:21;;;;;;;1.90;0.65;;;16.40;99.90;;;;;;4861331;29;20055;-65
2023/09/20 01:02:57;;;;;;;2.60;1.05;;;16.40;99.90;;;;;;4865090;29;20045;-65
2023/09/20 01:05:25;;;;;;;5.93;1.23;;;16.40;99.90;;;;;;4875435;29;20033;-65
2023/09/20 01:07:55;;;;;;;2.22;0.63;;;16.40;99.90;;;;;;4865377;29;20076;-65
2023/09/20 01:10:23;;;;;;;1.35;0.77;;;16.50;99.90;;;;;;4890989;29;20026;-65
2023/09/20 01:13:02;;;;;;;3.15;0.75;;;16.50;99.90;;;;;;4860710;29;20416;-65
2023/09/20 01:15:29;;;;;;;1.63;0.70;;;16.50;99.90;;;;;;4867025;29;20033;-65
2023/09/20 01:17:57;;;;;;;0.75;0.57;;;16.50;99.90;;;;;;4875060;29;20032;-65
2023/09/20 01:20:24;;;;;;;1.50;0.95;;;16.40;99.90;;;;;;4890013;29;20037;-65
2023/09/20 01:22:53;;;;;;;2.13;0.98;;;16.40;99.90;;;;;;4860550;29;20033;-65
2023/09/20 01:25:22;;;;;;;1.25;0.90;;;16.40;99.90;;;;;;4862340;29;20378;-65
2023/09/20 01:27:55;;;;;;;1.48;0.75;;;16.30;99.90;;;;;;4862184;29;20068;-65
2023/09/20 01:30:25;;;;;;;3.33;0.82;;;16.30;99.90;;;;;;4872903;29;20052;-65
2023/09/20 01:33:09;;;;;;;1.65;0.65;;;16.30;99.90;;;;;;4868289;29;20666;-66
2023/09/20 01:35:37;;;;;;;0.90;0.55;;;16.30;99.90;;;;;;4868451;29;20168;-65
2023/09/20 01:38:10;;;;;;;1.02;0.57;;;16.30;99.90;;;;;;4860095;29;20044;-65
2023/09/20 01:40:36;;;;;;;1.52;0.80;;;16.30;99.90;;;;;;4862248;29;20045;-65
2023/09/20 01:43:03;;;;;;;1.55;0.73;;;16.40;99.90;;;;;;4868117;29;20448;-65
2023/09/20 01:45:30;;;;;;;1.85;1.08;;;16.30;99.90;;;;;;4889772;29;20125;-65
2023/09/20 01:48:06;;;;;;;6.75;1.05;;;16.30;99.90;;;;;;4871435;29;20109;-65
2023/09/20 01:50:33;;;;;;;2.53;0.88;;;16.30;99.90;;;;;;4859733;29;20408;-65
2023/09/20 01:53:02;;;;;;;0.95;0.52;;;16.30;99.90;;;;;;4860132;29;20402;-65
2023/09/20 01:55:31;;;;;;;2.65;0.68;;;16.30;99.90;;;;;;4889735;29;20033;-65
2023/09/20 01:58:05;;;;;;;1.33;0.82;;;16.40;99.90;;;;;;4865719;29;20036;-65
2023/09/20 02:00:32;;;;;;;5.80;1.25;;;16.50;99.90;;;;;;4861053;29;20061;-65
2023/09/20 02:03:00;;;;;;;2.58;0.82;;;16.50;99.90;;;;;;4873798;29;20538;-65
2023/09/20 02:05:27;;;;;;;1.52;0.70;;;16.60;99.90;;;;;;4889850;29;20029;-65
2023/09/20 02:07:56;;;;;;;1.90;0.73;;;16.50;99.90;;;;;;4864490;29;20037;-65
2023/09/20 02:10:22;;;;;;;1.02;0.52;;;16.60;99.90;;;;;;4862244;29;20031;-66
2023/09/20 02:12:54;;;;;;;1.52;0.93;;;16.50;99.90;;;;;;4874289;29;20090;-66
2023/09/20 02:15:29;;;;;;;5.95;0.90;;;16.60;99.90;;;;;;4889139;29;20797;-66
2023/09/20 02:17:55;;;;;;;2.83;1.30;;;16.60;99.90;;;;;;4854807;29;20097;-65
2023/09/20 02:20:24;;;;;;;2.28;1.00;;;16.70;99.90;;;;;;4859912;29;20033;-66
2023/09/20 02:22:55;;;;;;;0.95;0.77;;;16.60;99.90;;;;;;4878532;29;20076;-65
2023/09/20 02:25:22;;;;;;;1.30;0.75;;;16.60;99.90;;;;;;4861553;29;20041;-65
2023/09/20 02:27:50;;;;;;;2.08;1.00;;;16.60;99.90;;;;;;4860857;29;20375;-65
2023/09/20 02:30:24;;;;;;;2.72;0.90;;;16.60;99.90;;;;;;4867288;29;20032;-65
2023/09/20 02:32:54;;;;;;;3.42;1.40;;;16.50;99.90;;;;;;4866747;29;20022;-65
2023/09/20 02:35:21;;;;;;;1.03;0.63;;;16.50;99.90;;;;;;4859621;29;20034;-65
2023/09/20 02:37:48;;;;;;;2.55;1.20;;;16.50;99.90;;;;;;4864093;29;20022;-65
2023/09/20 02:40:14;;;;;;;3.25;1.20;;;16.40;99.90;;;;;;4856505;29;20025;-65
2023/09/20 02:42:41;;;;;;;3.33;1.15;;;16.30;99.90;;;;;;4869705;29;20089;-65
2023/09/20 02:45:08;;;;;;;1.80;1.13;;;16.30;99.90;;;;;;4863687;29;20034;-65
2023/09/20 02:47:34;;;;;;;1.40;0.75;;;16.30;99.90;;;;;;4883925;29;20040;-65
2023/09/20 02:50:01;;;;;;;9.27;0.93;;;16.30;99.90;;;;;;4864367;29;20033;-65
2023/09/20 02:52:26;;;;;;;4.35;1.60;;;16.30;99.90;;;;;;4859194;29;20124;-65
2023/09/20 02:54:52;;;;;;;1.73;0.82;;;16.30;99.90;;;;;;4858838;29;20120;-65
2023/09/20 02:57:18;;;;;;;2.20;0.68;;;16.20;99.90;;;;;;4859259;29;20045;-65
2023/09/20 02:59:44;;;;;;;1.85;0.95;;;16.20;99.90;;;;;;4889198;29;20045;-65
2023/09/20 03:02:10;;;;;;;3.30;0.77;;;16.10;99.90;;;;;;4859383;29;20045;-65
2023/09/20 03:04:37;;;;;;;3.25;0.88;;;16.10;99.90;;;;;;4858992;29;20077;-65
2023/09/20 03:07:06;;;;;;;1.63;0.90;;;16.10;99.90;;;;;;4865797;29;20041;-65
2023/09/20 03:09:36;;;;;;;3.03;1.33;;;16.10;99.90;;;;;;4873605;29;20034;-65
2023/09/20 03:12:06;;;;;;;3.35;0.98;;;16.10;99.90;;;;;;4859610;29;20162;-65
2023/09/20 03:14:39;;;;;;;3.05;1.00;;;16.00;99.90;;;;;;4859312;29;20037;-65
2023/09/20 03:17:05;;;;;;;2.53;0.88;;;16.00;99.90;;;;;;4852315;29;20077;-65
2023/09/20 03:19:31;;;;;;;2.00;0.98;;;16.00;99.90;;;;;;4890361;29;20033;-65
2023/09/20 03:22:01;;;;;;;0.73;0.50;;;16.00;99.90;;;;;;4877719;29;20041;-65
2023/09/20 03:24:27;;;;;;;2.83;1.25;;;16.10;99.90;;;;;;4862463;29;20029;-65
2023/09/20 03:26:54;;;;;;;3.30;1.10;;;16.00;99.90;;;;;;4863005;29;20040;-65
2023/09/20 03:29:20;;;;;;;3.75;1.20;;;16.10;99.90;;;;;;4870416;29;20036;-65
2023/09/20 03:31:48;;;;;;;7.22;0.90;;;16.10;99.90;;;;;;4863273;29;20484;-65
2023/09/20 03:34:14;;;;;;;4.35;1.02;;;16.10;99.90;;;;;;4891691;29;20029;-65
2023/09/20 03:36:41;;;;;;;3.95;1.17;;;16.10;99.90;;;;;;4855325;29;20283;-65
2023/09/20 03:39:11;;;;;;;1.48;0.65;;;16.00;99.90;;;;;;4892033;29;20474;-65
2023/09/20 03:41:38;;;;;;;1.85;0.75;;;16.10;99.90;;;;;;4870048;29;20053;-65
2023/09/20 03:44:06;;;;;;;2.40;0.70;;;16.10;99.90;;;;;;4862081;29;20028;-65
2023/09/20 03:46:35;;;;;;;5.75;1.48;;;16.00;99.90;;;;;;4869168;29;20062;-65
2023/09/20 03:49:01;;;;;;;2.58;0.82;;;16.00;99.90;;;;;;4891279;29;20108;-65
2023/09/20 03:51:27;;;;;;;1.90;0.98;;;15.90;99.90;;;;;;4862378;29;20125;-66
2023/09/20 03:53:52;;;;;;;2.22;0.98;;;15.90;99.90;;;;;;4862220;29;20037;-65
2023/09/20 03:56:18;;;;;;;3.75;1.10;;;16.00;99.90;;;;;;4862363;29;20081;-66
2023/09/20 03:58:44;;;;;;;3.00;0.90;;;16.00;99.90;;;;;;4862178;29;20034;-65
2023/09/20 04:01:11;;;;;;;1.48;0.85;;;16.00;99.90;;;;;;4855604;29;20038;-65
2023/09/20 04:03:37;;;;;;;2.38;0.98;;;16.00;99.90;;;;;;4858941;29;20037;-65
2023/09/20 04:06:03;;;;;;;1.90;0.93;;;16.10;99.90;;;;;;4860055;29;20045;-66
2023/09/20 04:08:29;;;;;;;2.15;0.88;;;16.00;99.90;;;;;;4861827;29;20053;-66
2023/09/20 04:10:59;;;;;;;2.90;1.17;;;16.10;99.90;;;;;;4884935;29;20057;-66
2023/09/20 04:13:24;;;;;;;2.42;0.98;;;16.10;99.90;;;;;;4859505;29;20490;-65
2023/09/20 04:15:50;;;;;;;2.15;0.77;;;16.10;99.90;;;;;;4858167;29;20193;-65
2023/09/20 04:18:16;;;;;;;5.43;1.02;;;16.10;99.90;;;;;;4858912;29;20073;-65
2023/09/20 04:20:46;;;;;;;3.33;1.02;;;16.10;99.90;;;;;;4861655;29;20523;-65
2023/09/20 04:23:12;;;;;;;2.60;1.08;;;16.10;99.90;;;;;;4875647;29;20483;-65
2023/09/20 04:25:38;;;;;;;2.42;0.90;;;16.10;99.90;;;;;;4861701;29;20036;-65
2023/09/20 04:28:04;;;;;;;2.80;0.90;;;16.10;99.90;;;;;;4882112;29;20032;-65
2023/09/20 04:30:31;;;;;;;2.00;1.00;;;16.00;99.90;;;;;;4876171;29;20030;-65
2023/09/20 04:32:56;;;;;;;1.55;0.80;;;15.90;99.90;;;;;;4861552;29;20029;-65
2023/09/20 04:35:22;;;;;;;3.20;0.95;;;16.00;99.90;;;;;;4861343;29;20026;-65
2023/09/20 04:37:48;;;;;;;1.52;0.90;;;15.90;99.90;;;;;;4861287;29;20052;-65
2023/09/20 04:40:14;;;;;;;4.93;1.40;;;15.90;99.90;;;;;;4860707;29;20029;-65
2023/09/20 04:42:40;;;;;;;9.27;3.75;;;15.90;99.90;;;;;;4861113;29;20034;-66
2023/09/20 04:45:12;;;;;;;3.63;1.10;;;15.90;99.90;;;;;;4854224;29;20042;-66
2023/09/20 04:47:38;;;;;;;0.65;0.52;;;15.90;99.90;;;;;;4856969;29;20113;-65
2023/09/20 04:50:05;;;;;;;1.30;0.68;;;15.90;99.90;;;;;;4861353;29;20033;-65
2023/09/20 04:52:31;;;;;;;10.43;2.15;;;15.90;99.90;;;;;;4883373;29;20459;-65
2023/09/20 04:54:57;;;;;;;3.05;1.20;;;15.90;99.90;;;;;;4890528;29;20033;-65
2023/09/20 04:57:23;;;;;;;1.98;0.98;;;15.90;99.90;;;;;;4882942;29;20037;-65
2023/09/20 04:59:50;;;;;;;4.53;1.10;;;15.90;99.90;;;;;;4861331;29;20084;-65
2023/09/20 05:02:16;;;;;;;2.13;0.65;;;15.90;99.90;;;;;;4883273;29;20068;-65
2023/09/20 05:04:42;;;;;;;3.50;1.23;;;15.90;99.90;;;;;;4864481;29;20025;-65
2023/09/20 05:07:09;;;;;;;1.17;0.82;;;15.90;99.90;;;;;;4865388;29;20069;-65
2023/09/20 05:09:36;;;;;;;6.68;1.73;;;16.00;99.90;;;;;;4860707;29;20514;-65
2023/09/20 05:12:03;;;;;;;2.55;1.10;;;16.00;99.90;;;;;;4860616;29;20041;-70
2023/09/20 05:14:30;;;;;;;2.40;1.20;;;16.00;99.90;;;;;;4869961;29;20061;-69
2023/09/20 05:16:56;;;;;;;5.35;1.10;;;16.00;99.90;;;;;;4860568;29;20046;-68
2023/09/20 05:19:25;;;;;;;5.00;1.45;;;16.00;99.90;;;;;;4874627;29;20037;-68
2023/09/20 05:21:51;;;;;;;4.63;1.25;;;16.00;99.90;;;;;;4855846;29;20097;-69
2023/09/20 05:24:19;;;;;;;2.05;1.25;;;16.00;99.90;;;;;;4866211;29;20037;-70
2023/09/20 05:26:45;;;;;;;3.88;1.27;;;16.00;99.90;;;;;;4871298;29;20106;-68
2023/09/20 05:29:11;;;;;;;3.10;1.75;;;16.00;99.90;;;;;;4861258;29;20070;-68
2023/09/20 05:31:37;;;;;;;4.53;1.55;;;16.00;99.90;;;;;;4870805;29;20033;-69
2023/09/20 05:34:05;;;;;;;5.95;3.35;;;16.10;99.90;;;;;;4860543;29;20041;-67
2023/09/20 05:36:32;;;;;;;4.57;1.70;;;16.10;99.90;;;;;;4860544;29;20037;-68
2023/09/20 05:38:58;;;;;;;1.35;0.90;;;16.10;99.90;;;;;;4874647;29;20029;-68
2023/09/20 05:41:26;;;;;;;6.22;1.83;;;16.10;99.90;;;;;;4856754;29;20034;-68
2023/09/20 05:43:52;;;;;;;2.67;1.25;;;16.10;99.90;;;;;;4873731;29;20135;-68
2023/09/20 05:46:18;;;;;;;2.17;1.55;;;16.10;99.90;;;;;;4860095;29;20549;-68
2023/09/20 05:48:44;;;;;;;2.85;1.08;;;16.20;99.90;;;;;;4860547;29;20696;-68
2023/09/20 05:51:14;;;;;;;3.03;1.02;;;16.20;99.90;;;;;;4871013;29;20072;-68
2023/09/20 05:53:42;;;;;;;2.65;1.00;;;16.20;99.90;;;;;;4859528;29;20120;-68
2023/09/20 05:56:10;;;;;;;1.85;0.95;;;16.30;99.90;;;;;;4860243;29;20037;-68
2023/09/20 05:58:38;;;;;;;4.22;0.95;;;16.40;99.90;;;;;;4874124;29;20037;-67
2023/09/20 06:01:05;;;;;;;4.20;1.10;;;16.40;99.90;;;;;;4860007;29;20041;-67
2023/09/20 06:03:31;;;;;;;1.35;0.90;;;16.50;99.90;;;;;;4860021;29;20029;-66
2023/09/20 06:05:56;;;;;;;4.82;1.23;;;16.60;99.90;;;;;;4881061;29;20458;-66
2023/09/20 06:08:22;;;;;;;2.85;0.80;;;16.70;99.90;;;;;;4867088;29;20040;-66
2023/09/20 06:10:48;;;;;;;2.38;0.82;;;16.80;99.90;;;;;;4860067;29;20033;-67
2023/09/20 06:13:14;;;;;;;1.98;0.88;;;16.90;99.90;;;;;;4858100;29;20504;-68
2023/09/20 06:15:40;;;;;;;2.63;0.98;;;16.90;99.90;;;;;;4859991;29;20053;-66
2023/09/20 06:18:08;;;;;;;3.85;0.88;;;16.90;99.90;;;;;;4860109;29;20121;-65
2023/09/20 06:20:36;;;;;;;1.88;0.75;;;16.90;99.90;;;;;;4873865;29;20407;-64
2023/09/20 06:23:03;;;;;;;2.88;0.98;;;17.00;99.90;;;;;;4853867;29;20037;-63
2023/09/20 06:25:29;;;;;;;3.33;0.50;;;17.10;99.90;;;;;;4868781;29;20391;-64
2023/09/20 06:27:55;;;;;;;1.45;0.63;;;17.20;99.90;;;;;;4852205;29;20133;-64
2023/09/20 06:30:22;;;;;;;3.03;0.77;;;17.20;99.90;;;;;;4859589;29;20041;-64
2023/09/20 06:32:48;;;;;;;1.15;0.57;;;17.20;99.90;;;;;;4881244;29;20383;-64
2023/09/20 06:35:22;;;;;;;2.13;0.80;;;17.30;99.90;;;;;;4864973;29;20037;-64
2023/09/20 06:37:48;;;;;;;1.35;0.60;;;17.40;99.90;;;;;;4852939;29;20073;-64
2023/09/20 06:40:22;;;;;;;1.15;0.70;;;17.30;99.90;;;;;;4874156;29;20044;-64
2023/09/20 06:42:50;;;;;;;0.93;0.70;;;17.40;99.90;;;;;;4859338;29;20121;-65
2023/09/20 06:45:20;;;;;;;2.53;0.65;;;17.60;99.90;;;;;;4873750;29;20037;-64
2023/09/20 06:47:46;;;;;;;3.40;0.63;;;17.60;99.90;;;;;;4871495;29;20044;-68
2023/09/20 06:50:15;;;;;;;1.88;0.70;;;17.70;99.90;;;;;;4873965;29;20105;-66
2023/09/20 06:52:45;;;;;;;4.05;1.20;;;17.70;99.90;;;;;;4859592;29;20411;-64
2023/09/20 06:55:16;;;;;;;3.13;0.90;;;17.70;99.90;;;;;;4858298;29;20037;-65
2023/09/20 06:57:42;;;;;;;2.65;0.98;;;17.90;99.90;;;;;;4855410;29;20390;-65
2023/09/20 07:00:43;;;;;;;1.08;0.45;;;18.00;99.90;;;;;;4854880;29;20064;-66
2023/09/20 07:03:03;;;;;;;1.48;0.80;;;18.10;99.90;;;;;;4867139;29;20141;-64
2023/09/20 07:05:30;;;;;;;4.13;1.25;;;18.20;99.90;;;;;;4870361;29;20030;-65
2023/09/20 07:07:58;;;;;;;2.10;0.88;;;18.20;99.90;;;;;;4875252;29;20041;-65
2023/09/20 07:10:26;;;;;;;2.63;0.80;;;18.30;99.90;;;;;;4872212;29;20551;-65
2023/09/20 07:12:54;;;;;;;1.98;0.88;;;18.20;99.90;;;;;;4856868;29;20033;-65
2023/09/20 07:15:21;;;;;;;2.28;0.80;;;18.30;99.90;;;;;;4858508;29;20053;-66
2023/09/20 07:17:50;;;;;;;2.15;0.73;;;18.40;99.90;;;;;;4858766;29;20117;-65
2023/09/20 07:20:19;;;;;;;1.70;1.00;;;18.50;99.90;;;;;;4864449;29;20037;-65
2023/09/20 07:22:47;;;;;;;2.85;1.20;;;18.50;99.90;;;;;;4856997;29;20034;-65
2023/09/20 07:25:22;;;;;;;4.00;1.38;;;18.60;99.90;;;;;;4859160;29;20121;-65
2023/09/20 07:27:50;;;;;;;4.38;0.80;;;18.60;99.90;;;;;;4859343;29;20386;-65
2023/09/20 07:30:19;;;;;;;1.83;0.80;;;18.70;99.90;;;;;;4873240;29;20032;-65
2023/09/20 07:32:50;;;;;;;1.63;0.82;;;18.80;99.90;;;;;;4870552;29;20128;-65
2023/09/20 07:35:25;;;;;;;1.33;0.88;;;18.90;99.90;;;;;;4873212;29;20033;-64
2023/09/20 07:37:57;;;;;;;1.35;0.77;;;19.00;99.90;;;;;;4859377;29;20120;-65
2023/09/20 07:40:31;;;;;;;1.70;0.80;;;19.00;99.90;;;;;;4872629;29;20085;-65
2023/09/20 07:43:04;;;;;;;1.77;0.90;;;19.00;99.90;;;;;;4857009;29;20044;-65
2023/09/20 07:45:41;;;;;;;5.78;0.95;;;19.20;99.90;;;;;;4872624;29;20029;-65
2023/09/20 07:48:21;;;;;;;1.80;0.75;;;19.10;99.90;;;;;;4859092;29;20044;-65
2023/09/20 07:50:50;;;;;;;3.95;0.80;;;19.00;99.90;;;;;;4872744;29;20364;-65
2023/09/20 07:53:19;;;;;;;2.20;0.93;;;19.00;99.90;;;;;;4870420;29;20065;-65
2023/09/20 07:56:11;;;;;;;2.70;0.77;;;19.10;99.90;;;;;;4865802;29;20106;-65
2023/09/20 07:58:37;;;;;;;1.88;0.60;;;19.20;99.90;;;;;;4858979;29;20076;-65
2023/09/20 08:01:21;;;;;;;6.65;1.27;;;19.20;99.90;;;;;;4859100;29;20069;-65
2023/09/20 08:03:59;;;;;;;1.33;0.63;;;19.10;99.90;;;;;;4864616;29;20030;-64
2023/09/20 08:06:33;;;;;;;1.67;0.93;;;19.30;99.90;;;;;;4860336;29;20430;-65
2023/09/20 08:09:00;;;;;;;3.83;1.02;;;19.40;99.90;;;;;;4873828;29;20085;-65
2023/09/20 08:11:27;;;;;;;4.70;0.68;;;19.40;99.90;;;;;;4861825;29;20128;-65
2023/09/20 08:13:56;;;;;;;2.25;0.80;;;19.40;99.90;;;;;;4861642;29;20435;-65
2023/09/20 08:16:25;;;;;;;2.33;0.80;;;19.50;99.90;;;;;;4875860;29;20426;-65
2023/09/20 08:19:04;;;;;;;1.38;0.70;;;19.50;99.90;;;;;;4861883;29;20471;-65
2023/09/20 08:21:32;;;;;;;6.03;0.77;;;19.50;99.90;;;;;;4861505;29;20045;-65
2023/09/20 09:00:00;;;;;;;4.43;0.82;;;20.20;99.90;;;;;;4873331;29;20459;-64
2023/09/20 09:02:27;;;;;;;3.45;0.88;;;20.30;99.90;;;;;;4858719;29;20087;-64
2023/09/20 09:04:54;;;;;;;4.35;0.85;;;20.30;99.90;;;;;;4874913;29;20029;-64
2023/09/20 09:07:24;;;;;;;3.70;0.95;;;20.30;99.90;;;;;;4875026;29;20029;-64
2023/09/20 09:09:52;;;;;;;1.02;0.65;;;20.20;99.90;;;;;;4860266;29;20550;-64
2023/09/20 09:12:18;;;;;;;4.22;0.88;;;20.30;99.90;;;;;;4860713;29;20049;-65
2023/09/20 09:14:48;;;;;;;1.55;0.70;;;20.40;99.90;;;;;;4852977;29;20117;-65
2023/09/20 09:17:14;;;;;;;2.15;1.00;;;20.70;99.90;;;;;;4873911;29;20124;-65
2023/09/20 09:19:41;;;;;;;3.03;1.27;;;20.80;99.90;;;;;;4859007;29;20037;-64
2023/09/20 09:22:07;;;;;;;3.35;0.93;;;21.00;99.90;;;;;;4880737;29;20041;-65
2023/09/20 09:24:44;;;;;;;3.15;0.73;;;21.10;99.90;;;;;;4867518;29;20025;-65
2023/09/20 09:27:10;;;;;;;1.92;1.05;;;21.10;99.90;;;;;;4879366;29;20036;-64
2023/09/20 09:29:37;;;;;;;6.88;1.23;;;21.10;99.90;;;;;;4860314;29;20427;-65
2023/09/20 09:32:04;;;;;;;2.28;0.98;;;21.30;99.90;;;;;;4860202;29;20065;-65
2023/09/20 09:34:30;;;;;;;2.15;1.13;;;21.30;99.90;;;;;;4859881;29;20033;-65
2023/09/20 09:36:57;;;;;;;2.35;0.52;;;21.40;99.90;;;;;;4860305;29;20165;-64
2023/09/20 09:39:25;;;;;;;1.38;0.68;;;21.50;99.90;;;;;;4857739;29;20033;-65
2023/09/20 09:41:51;;;;;;;2.88;1.10;;;21.60;99.90;;;;;;4872690;29;20379;-65
2023/09/20 09:44:17;;;;;;;1.63;0.88;;;21.70;99.90;;;;;;4852756;29;20387;-64
2023/09/20 09:46:43;;;;;;;4.72;0.85;;;21.70;99.90;;;;;;4881378;29;20032;-65
2023/09/20 09:49:18;;;;;;;1.48;0.80;;;21.80;99.90;;;;;;4856914;29;20056;-65
2023/09/20 09:51:51;;;;;;;2.13;1.02;;;21.80;99.90;;;;;;4881448;29;20097;-65
2023/09/20 09:54:20;;;;;;;1.95;0.70;;;21.90;99.90;;;;;;4864862;29;20120;-65
2023/09/20 09:56:49;;;;;;;2.00;0.82;;;21.90;99.90;;;;;;4862477;29;20068;-65
2023/09/20 09:59:15;;;;;;;2.60;1.40;;;22.00;99.90;;;;;;4858404;29;20040;-65
2023/09/20 10:01:42;;;;;;;1.75;0.90;;;22.10;99.90;;;;;;4873700;29;20495;-65
2023/09/20 10:04:13;;;;;;;3.80;0.70;;;22.00;99.90;;;;;;4871615;29;20026;-65
2023/09/20 10:06:48;;;;;;;3.22;1.05;;;22.10;99.90;;;;;;4867900;29;20048;-64
2023/09/20 10:09:17;;;;;;;2.25;0.70;;;22.20;99.90;;;;;;4859289;29;20045;-64
2023/09/20 10:11:47;;;;;;;1.73;0.77;;;22.30;99.90;;;;;;4859796;29;20029;-64
2023/09/20 10:14:14;;;;;;;1.10;0.70;;;22.30;99.90;;;;;;4865413;29;20081;-64
2023/09/20 10:16:42;;;;;;;5.30;0.90;;;22.50;99.90;;;;;;4859246;29;20029;-64
2023/09/20 10:19:17;;;;;;;2.40;0.93;;;22.90;99.90;;;;;;4865872;29;20475;-64
2023/09/20 10:22:09;;;;;;;1.65;0.73;;;23.20;99.90;;;;;;4859249;29;20033;-63
2023/09/20 10:25:00;;;;;;;3.60;0.80;;;23.10;99.90;;;;;;4865195;29;20498;-65
2023/09/20 10:27:36;;;;;;;1.92;0.65;;;23.00;99.90;;;;;;4850050;29;20372;-64
2023/09/20 10:30:10;;;;;;;0.68;0.40;;;23.20;99.90;;;;;;4853472;29;20416;-64
2023/09/20 10:32:48;;;;;;;2.35;1.13;;;23.40;99.90;;;;;;4873128;29;20130;-64
2023/09/20 10:35:19;;;;;;;2.42;0.85;;;24.10;99.90;;;;;;4858864;29;20038;-64
2023/09/20 10:38:09;;;;;;;2.38;0.95;;;24.60;99.90;;;;;;4856455;29;20038;-65
2023/09/20 10:40:45;;;;;;;0.85;0.32;;;24.60;99.90;;;;;;4857574;29;20061;-64
2023/09/20 10:43:25;;;;;;;4.30;0.80;;;24.60;99.30;;;;;;4858387;29;20491;-64
2023/09/20 10:45:53;;;;;;;1.20;0.80;;;24.70;99.10;;;;;;4858707;29;20033;-64
2023/09/20 10:48:29;;;;;;;2.63;0.57;;;24.90;98.80;;;;;;4865152;29;20041;-65
2023/09/20 10:50:57;;;;;;;3.65;0.90;;;24.90;98.80;;;;;;4858758;29;20026;-64
2023/09/20 10:53:52;;;;;;;1.52;0.60;;;25.10;98.20;;;;;;4851028;29;20140;-64
2023/09/20 10:56:51;;;;;;;1.05;0.40;;;25.20;98.30;;;;;;4860169;29;20049;-64
2023/09/20 10:59:26;;;;;;;3.47;0.90;;;25.20;97.50;;;;;;4855560;29;20073;-64
2023/09/20 11:01:56;;;;;;;2.25;0.75;;;25.50;98.00;;;;;;4851851;29;20113;-64
2023/09/20 11:04:24;;;;;;;1.40;0.77;;;25.60;97.80;;;;;;4864587;29;20394;-64
2023/09/20 11:06:59;;;;;;;1.90;0.75;;;25.50;97.90;;;;;;4876347;29;20131;-64
2023/09/20 11:09:31;;;;;;;1.17;0.60;;;25.60;97.40;;;;;;4867344;29;20093;-65
2023/09/20 11:12:06;;;;;;;2.17;0.80;;;25.70;96.90;;;;;;4878268;29;20037;-65
2023/09/20 11:14:36;;;;;;;1.75;0.40;;;25.90;97.00;;;;;;4856021;29;20045;-65
2023/09/20 11:17:05;;;;;;;1.52;0.65;;;25.70;96.90;;;;;;4863686;29;20041;-65
2023/09/20 11:19:32;;;;;;;1.63;0.55;;;25.90;96.80;;;;;;4862396;29;20092;-69
2023/09/20 11:21:59;;;;;;;3.13;0.82;;;26.10;96.60;;;;;;4849233;29;20038;-69
2023/09/20 11:24:27;;;;;;;3.58;0.47;;;26.50;95.50;;;;;;4848023;29;20383;-70
2023/09/20 11:26:55;;;;;;;11.05;0.80;;;26.10;95.40;;;;;;4871846;29;20060;-66
2023/09/20 11:29:22;;;;;;;3.72;0.77;;;25.50;95.70;;;;;;4854198;29;20035;-66
2023/09/20 11:31:50;;;;;;;3.70;0.60;;;25.90;95.80;;;;;;4858303;29;20037;-66
2023/09/20 11:34:19;;;;;;;0.98;0.65;;;26.00;95.60;;;;;;4864480;29;20045;-65
2023/09/20 11:36:46;;;;;;;3.15;1.10;;;26.20;95.50;;;;;;4857817;29;20082;-65
2023/09/20 11:39:14;;;;;;;1.08;0.45;;;26.20;95.90;;;;;;4850532;29;20042;-65
2023/09/20 11:41:44;;;;;;;3.10;0.50;;;26.10;95.00;;;;;;4859219;29;20038;-65
2023/09/20 11:44:10;;;;;;;3.50;0.70;;;26.30;95.00;;;;;;4861630;29;20125;-65
2023/09/20 11:46:36;;;;;;;1.15;0.55;;;25.80;95.20;;;;;;4863603;29;20124;-66
2023/09/20 11:49:04;;;;;;;1.15;0.40;;;26.50;94.40;;;;;;4867049;29;20575;-66
2023/09/20 11:51:35;;;;;;;1.00;0.57;;;26.90;94.90;;;;;;4869118;29;20121;-65
2023/09/20 11:54:05;;;;;;;1.10;0.63;;;27.50;94.00;;;;;;4861400;29;20116;-65
2023/09/20 11:56:34;;;;;;;;;;;28.10;92.70;;;;;;4856503;29;20432;-65
2023/09/20 11:59:09;;;;;;;0.75;0.47;;;27.40;93.30;;;;;;4875479;29;19916;-66
2023/09/20 12:01:41;;;;;;;1.85;0.93;;;27.20;93.00;;;;;;4860993;29;20042;-66
2023/09/20 12:04:08;;;;;;;1.48;0.40;;;27.20;93.00;;;;;;4874961;29;20108;-66
2023/09/20 12:06:35;;;;;;;4.22;0.70;;;27.00;92.90;;;;;;4866310;29;20399;-65
2023/09/20 12:09:02;;;;;;;2.95;0.80;;;27.50;92.00;;;;;;4885591;29;20029;-66
2023/09/20 12:11:30;;;;;;;1.20;0.57;;;28.40;91.40;;;;;;4872980;29;20044;-66
2023/09/20 12:13:56;;;;;;;1.85;0.63;;;29.50;91.10;;;;;;4869584;29;20052;-66
2023/09/20 12:16:23;;;;;;;0.50;0.30;;;30.10;88.90;;;;;;4841539;29;20038;-66
2023/09/20 12:18:58;;;;;;;1.75;0.38;;;30.40;85.70;;;;;;4864950;29;20032;-65
2023/09/20 12:21:25;;;;;;;1.45;0.50;;;31.10;85.50;;;;;;4843669;29;20061;-65
2023/09/20 12:23:51;;;;;;;5.03;0.90;;;30.30;85.90;;;;;;4871354;29;20120;-65
2023/09/20 12:26:17;;;;;;;0.90;0.35;;;31.70;81.10;;;;;;4847277;29;20158;-65
2023/09/20 12:28:44;;;;;;;1.05;0.40;;;31.50;79.70;;;;;;4883485;29;20041;-65
2023/09/20 12:31:10;;;;;;;1.83;0.75;;;31.50;78.70;;;;;;4856412;29;20147;-65
2023/09/20 12:33:37;;;;;;;2.47;0.60;;;29.90;80.20;;;;;;4859359;29;20041;-66
2023/09/20 12:36:09;;;;;;;1.93;0.80;;;30.10;79.70;;;;;;4855478;29;20034;-64
2023/09/20 12:38:41;;;;;;;;;;;28.50;81.50;;;;;;4875750;29;20794;-66
2023/09/20 12:41:09;;;;;;;1.55;0.70;;;28.30;85.30;;;;;;4886648;29;19934;-68
2023/09/20 12:43:38;;;;;;;0.65;0.45;;;29.90;81.10;;;;;;4885659;29;20033;-68
2023/09/20 12:46:05;;;;;;;0.65;0.45;;;30.40;79.10;;;;;;4883501;29;20047;-67
2023/09/20 12:48:32;;;;;;;1.60;0.52;;;29.40;80.10;;;;;;4862177;29;20033;-69
2023/09/20 12:50:58;;;;;;;2.53;0.63;;;29.80;80.00;;;;;;4860606;29;20042;-68
2023/09/20 12:53:24;;;;;;;4.25;0.73;;;29.60;79.80;;;;;;4866445;29;20044;-70
2023/09/20 12:55:50;;;;;;;1.35;0.50;;;29.40;79.90;;;;;;4871392;29;20052;-69
2023/09/20 12:58:16;;;;;;;2.50;0.70;;;28.40;81.20;;;;;;4866380;29;20038;-68
2023/09/20 13:00:49;;;;;;;1.27;0.50;;;29.20;81.00;;;;;;4872286;29;20026;-71
2023/09/20 13:03:15;;;;;;;1.42;0.65;;;29.00;79.40;;;;;;4854633;29;20106;-70
2023/09/20 13:05:43;;;;;;;6.43;0.73;;;29.60;81.10;;;;;;4858041;29;20029;-70
2023/09/20 13:08:10;;;;;;;2.38;0.85;;;30.10;80.70;;;;;;4869062;29;20044;-69
2023/09/20 13:10:37;;;;;;;0.70;0.40;;;31.40;76.80;;;;;;4864612;29;20045;-68
2023/09/20 13:13:09;;;;;;;1.55;0.52;;;30.90;75.90;;;;;;4865669;29;20045;-68
2023/09/20 13:15:35;;;;;;;0.95;0.40;;;31.80;74.40;;;;;;4858480;29;20033;-69
2023/09/20 13:18:01;;;;;;;0.68;0.32;;;31.30;75.80;;;;;;4886676;29;20516;-69
2023/09/20 13:20:27;;;;;;;2.25;0.50;;;31.80;75.00;;;;;;4862624;29;20064;-69
2023/09/20 13:22:54;;;;;;;0.65;0.45;;;31.60;72.80;;;;;;4858898;29;20037;-67
2023/09/20 13:25:21;;;;;;;1.88;0.50;;;30.00;76.10;;;;;;4864728;29;20021;-67
2023/09/20 13:27:49;;;;;;;1.48;0.40;;;29.90;76.40;;;;;;4863855;29;20033;-67
2023/09/20 13:30:17;;;;;;;1.42;0.60;;;30.10;74.90;;;;;;4889063;29;20043;-68
2023/09/20 13:32:47;;;;;;;1.33;0.30;;;30.10;75.00;;;;;;4868346;29;20528;-68